sensor_id;sensor_type;location;lat;lon;timestamp;temperature;humidity
72936;DHT22;61085;48.804;9.228;2022-10-26T00:01:14;13.70;98.40
72936;DHT22;61085;48.804;9.228;2022-10-26T00:03:41;13.70;98.40
72936;DHT22;61085;48.804;9.228;2022-10-26T00:08:38;13.80;98.40
72936;DHT22;61085;48.804;9.228;2022-10-26T00:11:04;13.80;98.40
72936;DHT22;61085;48.804;9.228;2022-10-26T00:13:31;13.90;98.40
72936;DHT22;61085;48.804;9.228;2022-10-26T00:15:56;13.90;98.40
72936;DHT22;61085;48.804;9.228;2022-10-26T00:18:22;13.80;98.80
72936;DHT22;61085;48.804;9.228;2022-10-26T00:20:48;13.80;98.60
72936;DHT22;61085;48.804;9.228;2022-10-26T00:23:14;13.80;98.60
72936;DHT22;61085;48.804;9.228;2022-10-26T00:25:40;13.80;98.60
72936;DHT22;61085;48.804;9.228;2022-10-26T00:28:05;13.80;98.80
72936;DHT22;61085;48.804;9.228;2022-10-26T00:30:31;13.80;99.00
72936;DHT22;61085;48.804;9.228;2022-10-26T00:32:57;13.80;99.10
72936;DHT22;61085;48.804;9.228;2022-10-26T00:35:22;13.80;99.00
72936;DHT22;61085;48.804;9.228;2022-10-26T00:37:48;13.80;98.80
72936;DHT22;61085;48.804;9.228;2022-10-26T00:40:13;13.80;98.80
72936;DHT22;61085;48.804;9.228;2022-10-26T00:42:39;13.80;98.60
72936;DHT22;61085;48.804;9.228;2022-10-26T00:45:24;13.70;98.70
72936;DHT22;61085;48.804;9.228;2022-10-26T00:47:54;13.80;99.00
72936;DHT22;61085;48.804;9.228;2022-10-26T00:52:53;13.80;98.30
72936;DHT22;61085;48.804;9.228;2022-10-26T00:55:23;13.90;98.20
72936;DHT22;61085;48.804;9.228;2022-10-26T00:57:52;13.90;98.20
72936;DHT22;61085;48.804;9.228;2022-10-26T01:00:18;13.90;98.30
72936;DHT22;61085;48.804;9.228;2022-10-26T01:02:45;13.90;98.20
72936;DHT22;61085;48.804;9.228;2022-10-26T01:05:14;14.20;98.30
72936;DHT22;61085;48.804;9.228;2022-10-26T01:07:41;13.90;97.90
72936;DHT22;61085;48.804;9.228;2022-10-26T01:10:08;13.90;97.90
72936;DHT22;61085;48.804;9.228;2022-10-26T01:12:33;13.80;98.10
72936;DHT22;61085;48.804;9.228;2022-10-26T01:14:59;13.60;98.00
72936;DHT22;61085;48.804;9.228;2022-10-26T01:25:32;13.70;98.40
72936;DHT22;61085;48.804;9.228;2022-10-26T01:28:12;13.80;98.30
72936;DHT22;61085;48.804;9.228;2022-10-26T01:30:43;13.70;98.70
72936;DHT22;61085;48.804;9.228;2022-10-26T01:43:55;13.70;98.80
72936;DHT22;61085;48.804;9.228;2022-10-26T01:46:25;13.70;99.00
72936;DHT22;61085;48.804;9.228;2022-10-26T01:48:56;13.70;98.70
72936;DHT22;61085;48.804;9.228;2022-10-26T01:51:24;13.60;98.50
72936;DHT22;61085;48.804;9.228;2022-10-26T01:53:50;13.60;98.80
72936;DHT22;61085;48.804;9.228;2022-10-26T01:56:22;13.70;99.10
72936;DHT22;61085;48.804;9.228;2022-10-26T01:59:26;13.70;99.10
72936;DHT22;61085;48.804;9.228;2022-10-26T02:07:27;13.60;99.90
72936;DHT22;61085;48.804;9.228;2022-10-26T02:12:38;13.60;99.90
72936;DHT22;61085;48.804;9.228;2022-10-26T02:20:29;13.50;99.90
72936;DHT22;61085;48.804;9.228;2022-10-26T02:22:57;13.40;99.90
72936;DHT22;61085;48.804;9.228;2022-10-26T02:25:27;13.50;99.90
72936;DHT22;61085;48.804;9.228;2022-10-26T02:27:59;13.50;99.90
72936;DHT22;61085;48.804;9.228;2022-10-26T02:30:26;13.60;99.90
72936;DHT22;61085;48.804;9.228;2022-10-26T02:32:53;13.50;99.90
72936;DHT22;61085;48.804;9.228;2022-10-26T02:35:24;13.40;99.90
72936;DHT22;61085;48.804;9.228;2022-10-26T02:37:52;13.50;99.90
72936;DHT22;61085;48.804;9.228;2022-10-26T02:40:22;13.40;99.90
72936;DHT22;61085;48.804;9.228;2022-10-26T02:42:51;13.50;99.90
72936;DHT22;61085;48.804;9.228;2022-10-26T02:45:21;13.50;99.90
72936;DHT22;61085;48.804;9.228;2022-10-26T02:47:49;13.40;99.90
72936;DHT22;61085;48.804;9.228;2022-10-26T02:50:15;13.40;99.90
72936;DHT22;61085;48.804;9.228;2022-10-26T02:52:53;13.40;99.90
72936;DHT22;61085;48.804;9.228;2022-10-26T02:55:24;13.50;99.90
72936;DHT22;61085;48.804;9.228;2022-10-26T02:57:59;13.60;99.90
72936;DHT22;61085;48.804;9.228;2022-10-26T03:00:26;13.60;99.90
72936;DHT22;61085;48.804;9.228;2022-10-26T03:02:55;13.50;99.90
72936;DHT22;61085;48.804;9.228;2022-10-26T03:05:26;13.40;99.90
72936;DHT22;61085;48.804;9.228;2022-10-26T03:07:53;13.40;99.90
72936;DHT22;61085;48.804;9.228;2022-10-26T03:10:19;13.30;99.90
72936;DHT22;61085;48.804;9.228;2022-10-26T03:12:45;13.30;99.90
72936;DHT22;61085;48.804;9.228;2022-10-26T03:15:11;13.30;99.90
72936;DHT22;61085;48.804;9.228;2022-10-26T03:17:36;13.20;99.90
72936;DHT22;61085;48.804;9.228;2022-10-26T03:20:03;13.40;99.90
72936;DHT22;61085;48.804;9.228;2022-10-26T03:22:29;13.40;99.90
72936;DHT22;61085;48.804;9.228;2022-10-26T03:24:54;13.30;99.90
72936;DHT22;61085;48.804;9.228;2022-10-26T03:27:20;13.30;99.90
72936;DHT22;61085;48.804;9.228;2022-10-26T03:29:45;13.30;99.90
72936;DHT22;61085;48.804;9.228;2022-10-26T03:32:11;13.30;99.90
72936;DHT22;61085;48.804;9.228;2022-10-26T03:34:37;13.30;99.90
72936;DHT22;61085;48.804;9.228;2022-10-26T03:37:02;13.30;99.90
72936;DHT22;61085;48.804;9.228;2022-10-26T03:39:28;13.30;99.90
72936;DHT22;61085;48.804;9.228;2022-10-26T03:41:53;13.30;99.90
72936;DHT22;61085;48.804;9.228;2022-10-26T03:44:20;13.30;99.90
72936;DHT22;61085;48.804;9.228;2022-10-26T03:46:46;13.40;99.90
72936;DHT22;61085;48.804;9.228;2022-10-26T03:49:11;13.50;99.90
72936;DHT22;61085;48.804;9.228;2022-10-26T03:51:37;13.60;99.90
72936;DHT22;61085;48.804;9.228;2022-10-26T03:54:03;13.70;99.90
72936;DHT22;61085;48.804;9.228;2022-10-26T03:56:28;13.70;99.90
72936;DHT22;61085;48.804;9.228;2022-10-26T03:58:54;13.60;99.90
72936;DHT22;61085;48.804;9.228;2022-10-26T04:01:20;13.60;99.90
72936;DHT22;61085;48.804;9.228;2022-10-26T04:03:45;13.60;99.90
72936;DHT22;61085;48.804;9.228;2022-10-26T04:06:11;13.70;99.90
72936;DHT22;61085;48.804;9.228;2022-10-26T04:08:37;13.70;99.90
72936;DHT22;61085;48.804;9.228;2022-10-26T04:11:02;13.70;99.90
72936;DHT22;61085;48.804;9.228;2022-10-26T04:13:28;13.70;99.90
72936;DHT22;61085;48.804;9.228;2022-10-26T04:15:53;13.70;99.90
72936;DHT22;61085;48.804;9.228;2022-10-26T04:18:19;13.70;99.90
72936;DHT22;61085;48.804;9.228;2022-10-26T04:20:45;13.80;99.90
72936;DHT22;61085;48.804;9.228;2022-10-26T04:23:12;13.80;99.90
72936;DHT22;61085;48.804;9.228;2022-10-26T04:25:38;13.90;99.80
72936;DHT22;61085;48.804;9.228;2022-10-26T04:28:06;13.90;99.90
72936;DHT22;61085;48.804;9.228;2022-10-26T04:30:33;13.90;99.80
72936;DHT22;61085;48.804;9.228;2022-10-26T04:32:59;14.00;99.90
72936;DHT22;61085;48.804;9.228;2022-10-26T04:35:25;14.00;99.90
72936;DHT22;61085;48.804;9.228;2022-10-26T04:37:56;14.30;99.90
72936;DHT22;61085;48.804;9.228;2022-10-26T04:40:22;14.20;99.90
72936;DHT22;61085;48.804;9.228;2022-10-26T04:42:47;14.30;99.70
72936;DHT22;61085;48.804;9.228;2022-10-26T04:45:15;14.20;99.50
72936;DHT22;61085;48.804;9.228;2022-10-26T04:47:42;14.20;99.90
72936;DHT22;61085;48.804;9.228;2022-10-26T04:50:10;14.20;99.70
72936;DHT22;61085;48.804;9.228;2022-10-26T04:52:36;14.00;99.90
72936;DHT22;61085;48.804;9.228;2022-10-26T04:55:02;14.00;99.90
72936;DHT22;61085;48.804;9.228;2022-10-26T04:57:31;14.00;99.90
72936;DHT22;61085;48.804;9.228;2022-10-26T04:59:57;13.90;99.90
72936;DHT22;61085;48.804;9.228;2022-10-26T05:02:23;13.90;99.90
72936;DHT22;61085;48.804;9.228;2022-10-26T05:04:49;13.80;99.90
72936;DHT22;61085;48.804;9.228;2022-10-26T05:07:14;13.80;99.90
72936;DHT22;61085;48.804;9.228;2022-10-26T05:09:40;13.70;99.90
72936;DHT22;61085;48.804;9.228;2022-10-26T05:12:05;13.70;99.90
72936;DHT22;61085;48.804;9.228;2022-10-26T05:14:31;13.80;99.90
72936;DHT22;61085;48.804;9.228;2022-10-26T05:16:59;14.00;99.90
72936;DHT22;61085;48.804;9.228;2022-10-26T05:19:24;13.80;99.90
72936;DHT22;61085;48.804;9.228;2022-10-26T05:21:50;13.80;99.90
72936;DHT22;61085;48.804;9.228;2022-10-26T05:24:18;13.80;99.90
72936;DHT22;61085;48.804;9.228;2022-10-26T05:26:43;13.80;99.90
72936;DHT22;61085;48.804;9.228;2022-10-26T05:29:09;13.90;99.90
72936;DHT22;61085;48.804;9.228;2022-10-26T05:31:35;13.90;99.90
72936;DHT22;61085;48.804;9.228;2022-10-26T05:34:00;13.90;99.90
72936;DHT22;61085;48.804;9.228;2022-10-26T05:36:26;13.90;99.90
72936;DHT22;61085;48.804;9.228;2022-10-26T05:38:52;13.90;99.90
72936;DHT22;61085;48.804;9.228;2022-10-26T05:41:17;14.00;99.90
72936;DHT22;61085;48.804;9.228;2022-10-26T05:43:43;14.00;99.90
72936;DHT22;61085;48.804;9.228;2022-10-26T05:46:11;14.00;99.90
72936;DHT22;61085;48.804;9.228;2022-10-26T05:48:36;14.00;99.90
72936;DHT22;61085;48.804;9.228;2022-10-26T05:51:02;14.10;99.90
72936;DHT22;61085;48.804;9.228;2022-10-26T05:53:27;14.10;99.90
72936;DHT22;61085;48.804;9.228;2022-10-26T05:55:54;14.20;99.90
72936;DHT22;61085;48.804;9.228;2022-10-26T05:58:20;14.20;99.90
72936;DHT22;61085;48.804;9.228;2022-10-26T06:06:36;14.20;99.90
72936;DHT22;61085;48.804;9.228;2022-10-26T06:09:03;14.20;99.90
72936;DHT22;61085;48.804;9.228;2022-10-26T06:11:29;14.20;99.90
72936;DHT22;61085;48.804;9.228;2022-10-26T06:13:55;14.20;99.90
72936;DHT22;61085;48.804;9.228;2022-10-26T06:21:49;14.30;99.90
72936;DHT22;61085;48.804;9.228;2022-10-26T06:24:33;14.30;99.90
72936;DHT22;61085;48.804;9.228;2022-10-26T06:29:42;14.40;99.90
72936;DHT22;61085;48.804;9.228;2022-10-26T06:32:10;14.50;99.90
72936;DHT22;61085;48.804;9.228;2022-10-26T06:34:41;14.50;99.90
72936;DHT22;61085;48.804;9.228;2022-10-26T06:37:08;14.50;99.90
72936;DHT22;61085;48.804;9.228;2022-10-26T06:39:36;14.40;99.90
72936;DHT22;61085;48.804;9.228;2022-10-26T06:42:04;14.40;99.90
72936;DHT22;61085;48.804;9.228;2022-10-26T06:44:30;14.50;99.90
72936;DHT22;61085;48.804;9.228;2022-10-26T06:47:04;14.50;99.90
72936;DHT22;61085;48.804;9.228;2022-10-26T06:52:22;14.50;99.90
72936;DHT22;61085;48.804;9.228;2022-10-26T06:54:53;14.50;99.90
72936;DHT22;61085;48.804;9.228;2022-10-26T06:57:25;14.60;99.80
72936;DHT22;61085;48.804;9.228;2022-10-26T06:59:57;14.60;99.50
72936;DHT22;61085;48.804;9.228;2022-10-26T07:02:25;14.60;99.60
72936;DHT22;61085;48.804;9.228;2022-10-26T07:04:50;14.60;99.50
72936;DHT22;61085;48.804;9.228;2022-10-26T07:07:21;14.60;99.50
72936;DHT22;61085;48.804;9.228;2022-10-26T07:09:48;14.60;99.70
72936;DHT22;61085;48.804;9.228;2022-10-26T07:12:14;14.60;99.40
72936;DHT22;61085;48.804;9.228;2022-10-26T07:14:39;14.70;99.30
72936;DHT22;61085;48.804;9.228;2022-10-26T07:17:06;14.70;99.00
72936;DHT22;61085;48.804;9.228;2022-10-26T07:19:32;14.80;99.20
72936;DHT22;61085;48.804;9.228;2022-10-26T07:21:58;14.70;99.50
72936;DHT22;61085;48.804;9.228;2022-10-26T07:24:24;14.80;99.50
72936;DHT22;61085;48.804;9.228;2022-10-26T07:26:53;14.80;99.90
72936;DHT22;61085;48.804;9.228;2022-10-26T07:29:18;14.90;99.90
72936;DHT22;61085;48.804;9.228;2022-10-26T07:31:44;14.70;99.90
72936;DHT22;61085;48.804;9.228;2022-10-26T07:34:10;14.80;99.90
72936;DHT22;61085;48.804;9.228;2022-10-26T07:36:35;14.80;99.90
72936;DHT22;61085;48.804;9.228;2022-10-26T07:39:03;14.80;99.90
72936;DHT22;61085;48.804;9.228;2022-10-26T07:41:29;15.00;99.90
72936;DHT22;61085;48.804;9.228;2022-10-26T07:43:54;14.90;99.90
72936;DHT22;61085;48.804;9.228;2022-10-26T07:46:20;15.20;99.90
72936;DHT22;61085;48.804;9.228;2022-10-26T07:48:46;14.90;99.90
72936;DHT22;61085;48.804;9.228;2022-10-26T07:51:11;14.90;99.90
72936;DHT22;61085;48.804;9.228;2022-10-26T07:53:37;14.90;99.90
72936;DHT22;61085;48.804;9.228;2022-10-26T07:56:03;15.00;99.90
72936;DHT22;61085;48.804;9.228;2022-10-26T07:58:29;15.20;99.60
72936;DHT22;61085;48.804;9.228;2022-10-26T08:00:54;15.20;99.40
72936;DHT22;61085;48.804;9.228;2022-10-26T08:03:21;15.30;99.40
72936;DHT22;61085;48.804;9.228;2022-10-26T08:05:48;15.50;99.00
72936;DHT22;61085;48.804;9.228;2022-10-26T08:08:18;15.60;98.60
72936;DHT22;61085;48.804;9.228;2022-10-26T08:10:45;15.70;98.20
72936;DHT22;61085;48.804;9.228;2022-10-26T08:13:11;15.80;97.60
72936;DHT22;61085;48.804;9.228;2022-10-26T08:15:37;16.00;97.40
72936;DHT22;61085;48.804;9.228;2022-10-26T08:18:03;16.10;97.20
72936;DHT22;61085;48.804;9.228;2022-10-26T08:20:29;16.20;96.80
72936;DHT22;61085;48.804;9.228;2022-10-26T08:22:56;16.30;96.40
72936;DHT22;61085;48.804;9.228;2022-10-26T08:25:21;16.40;96.00
72936;DHT22;61085;48.804;9.228;2022-10-26T08:27:47;16.40;95.80
72936;DHT22;61085;48.804;9.228;2022-10-26T08:30:13;16.40;95.60
72936;DHT22;61085;48.804;9.228;2022-10-26T08:32:39;16.60;95.40
72936;DHT22;61085;48.804;9.228;2022-10-26T08:35:07;16.40;95.00
72936;DHT22;61085;48.804;9.228;2022-10-26T08:37:33;16.60;95.00
72936;DHT22;61085;48.804;9.228;2022-10-26T08:39:58;16.70;94.90
72936;DHT22;61085;48.804;9.228;2022-10-26T08:42:36;16.70;94.70
72936;DHT22;61085;48.804;9.228;2022-10-26T08:45:11;16.70;94.80
72936;DHT22;61085;48.804;9.228;2022-10-26T08:47:44;16.70;94.80
72936;DHT22;61085;48.804;9.228;2022-10-26T08:50:32;16.80;94.40
72936;DHT22;61085;48.804;9.228;2022-10-26T08:55:56;16.80;94.70
72936;DHT22;61085;48.804;9.228;2022-10-26T08:58:28;16.80;95.00
72936;DHT22;61085;48.804;9.228;2022-10-26T09:00:54;16.90;94.50
72936;DHT22;61085;48.804;9.228;2022-10-26T09:03:20;16.90;94.60
72936;DHT22;61085;48.804;9.228;2022-10-26T09:21:57;17.20;93.80
72936;DHT22;61085;48.804;9.228;2022-10-26T09:24:31;17.30;93.70
72936;DHT22;61085;48.804;9.228;2022-10-26T09:29:37;17.50;93.50
72936;DHT22;61085;48.804;9.228;2022-10-26T09:32:08;17.70;93.20
72936;DHT22;61085;48.804;9.228;2022-10-26T09:34:46;17.70;92.80
72936;DHT22;61085;48.804;9.228;2022-10-26T09:37:25;17.90;92.60
72936;DHT22;61085;48.804;9.228;2022-10-26T09:45:11;18.70;90.50
72936;DHT22;61085;48.804;9.228;2022-10-26T09:47:46;18.90;90.00
72936;DHT22;61085;48.804;9.228;2022-10-26T09:50:29;19.10;88.30
72936;DHT22;61085;48.804;9.228;2022-10-26T09:52:57;19.30;88.60
72936;DHT22;61085;48.804;9.228;2022-10-26T09:55:23;19.40;87.10
72936;DHT22;61085;48.804;9.228;2022-10-26T09:57:55;19.60;87.00
72936;DHT22;61085;48.804;9.228;2022-10-26T10:00:23;19.70;87.10
72936;DHT22;61085;48.804;9.228;2022-10-26T10:02:51;19.80;85.70
72936;DHT22;61085;48.804;9.228;2022-10-26T10:05:33;19.90;83.20
72936;DHT22;61085;48.804;9.228;2022-10-26T10:13:20;19.50;84.50
72936;DHT22;61085;48.804;9.228;2022-10-26T10:15:52;19.70;83.10
72936;DHT22;61085;48.804;9.228;2022-10-26T10:18:22;19.60;83.70
72936;DHT22;61085;48.804;9.228;2022-10-26T10:20:53;19.80;83.80
72936;DHT22;61085;48.804;9.228;2022-10-26T10:23:49;19.70;83.20
72936;DHT22;61085;48.804;9.228;2022-10-26T10:26:18;19.80;83.60
72936;DHT22;61085;48.804;9.228;2022-10-26T10:28:56;19.80;84.70
72936;DHT22;61085;48.804;9.228;2022-10-26T10:31:27;19.60;84.30
72936;DHT22;61085;48.804;9.228;2022-10-26T10:33:53;19.70;85.90
72936;DHT22;61085;48.804;9.228;2022-10-26T10:36:23;19.90;84.80
72936;DHT22;61085;48.804;9.228;2022-10-26T10:38:51;20.10;84.30
72936;DHT22;61085;48.804;9.228;2022-10-26T10:41:31;20.30;84.80
72936;DHT22;61085;48.804;9.228;2022-10-26T10:46:45;20.50;80.50
72936;DHT22;61085;48.804;9.228;2022-10-26T10:49:24;20.50;80.60
72936;DHT22;61085;48.804;9.228;2022-10-26T10:51:50;20.50;80.90
72936;DHT22;61085;48.804;9.228;2022-10-26T10:54:36;20.50;80.90
72936;DHT22;61085;48.804;9.228;2022-10-26T10:57:10;20.50;79.60
72936;DHT22;61085;48.804;9.228;2022-10-26T11:00:03;20.50;80.10
72936;DHT22;61085;48.804;9.228;2022-10-26T11:05:21;20.70;78.70
72936;DHT22;61085;48.804;9.228;2022-10-26T11:08:01;20.30;79.80
72936;DHT22;61085;48.804;9.228;2022-10-26T11:10:33;20.30;80.40
72936;DHT22;61085;48.804;9.228;2022-10-26T11:13:08;20.50;80.70
72936;DHT22;61085;48.804;9.228;2022-10-26T11:15:36;20.70;80.10
72936;DHT22;61085;48.804;9.228;2022-10-26T11:18:18;20.90;78.30
72936;DHT22;61085;48.804;9.228;2022-10-26T11:20:50;21.00;77.50
72936;DHT22;61085;48.804;9.228;2022-10-26T11:23:20;21.30;76.80
72936;DHT22;61085;48.804;9.228;2022-10-26T11:25:55;21.30;75.50
72936;DHT22;61085;48.804;9.228;2022-10-26T11:31:06;21.30;75.80
72936;DHT22;61085;48.804;9.228;2022-10-26T11:33:39;21.40;77.20
72936;DHT22;61085;48.804;9.228;2022-10-26T11:36:09;21.30;75.60
72936;DHT22;61085;48.804;9.228;2022-10-26T11:38:46;21.30;75.30
72936;DHT22;61085;48.804;9.228;2022-10-26T11:41:18;21.30;75.80
72936;DHT22;61085;48.804;9.228;2022-10-26T11:43:47;21.40;74.80
72936;DHT22;61085;48.804;9.228;2022-10-26T11:46:37;21.40;74.70
72936;DHT22;61085;48.804;9.228;2022-10-26T11:52:16;21.50;74.70
72936;DHT22;61085;48.804;9.228;2022-10-26T11:57:16;21.40;74.30
72936;DHT22;61085;48.804;9.228;2022-10-26T11:59:48;21.40;74.80
72936;DHT22;61085;48.804;9.228;2022-10-26T12:02:23;21.50;74.80
72936;DHT22;61085;48.804;9.228;2022-10-26T12:05:10;21.50;74.00
72936;DHT22;61085;48.804;9.228;2022-10-26T12:07:46;21.40;73.90
72936;DHT22;61085;48.804;9.228;2022-10-26T12:10:31;21.40;73.70
72936;DHT22;61085;48.804;9.228;2022-10-26T12:13:04;21.50;73.70
72936;DHT22;61085;48.804;9.228;2022-10-26T12:15:42;21.60;72.40
72936;DHT22;61085;48.804;9.228;2022-10-26T12:21:00;21.50;72.00
72936;DHT22;61085;48.804;9.228;2022-10-26T12:23:28;21.40;72.20
72936;DHT22;61085;48.804;9.228;2022-10-26T12:29:12;21.50;72.70
72936;DHT22;61085;48.804;9.228;2022-10-26T12:52:57;21.50;71.00
72936;DHT22;61085;48.804;9.228;2022-10-26T12:58:46;21.70;72.00
72936;DHT22;61085;48.804;9.228;2022-10-26T13:07:18;21.60;71.90
72936;DHT22;61085;48.804;9.228;2022-10-26T13:09:57;21.60;72.90
72936;DHT22;61085;48.804;9.228;2022-10-26T13:12:25;21.60;70.70
72936;DHT22;61085;48.804;9.228;2022-10-26T13:14:59;21.60;70.50
72936;DHT22;61085;48.804;9.228;2022-10-26T13:17:28;21.60;69.90
72936;DHT22;61085;48.804;9.228;2022-10-26T13:20:03;21.70;70.60
72936;DHT22;61085;48.804;9.228;2022-10-26T13:22:29;21.70;70.20
72936;DHT22;61085;48.804;9.228;2022-10-26T13:25:01;21.70;70.60
72936;DHT22;61085;48.804;9.228;2022-10-26T13:32:52;21.90;69.20
72936;DHT22;61085;48.804;9.228;2022-10-26T13:35:20;22.10;69.60
72936;DHT22;61085;48.804;9.228;2022-10-26T13:37:50;22.10;66.80
72936;DHT22;61085;48.804;9.228;2022-10-26T13:40:21;22.20;67.50
72936;DHT22;61085;48.804;9.228;2022-10-26T13:42:53;22.30;65.90
72936;DHT22;61085;48.804;9.228;2022-10-26T13:45:26;22.10;66.30
72936;DHT22;61085;48.804;9.228;2022-10-26T13:48:02;22.20;66.50
72936;DHT22;61085;48.804;9.228;2022-10-26T13:50:36;22.10;65.60
72936;DHT22;61085;48.804;9.228;2022-10-26T13:55:52;22.10;66.70
72936;DHT22;61085;48.804;9.228;2022-10-26T14:01:19;22.20;67.10
72936;DHT22;61085;48.804;9.228;2022-10-26T14:03:49;22.00;66.70
72936;DHT22;61085;48.804;9.228;2022-10-26T14:06:35;21.80;69.60
72936;DHT22;61085;48.804;9.228;2022-10-26T14:09:14;21.70;70.70
72936;DHT22;61085;48.804;9.228;2022-10-26T14:11:59;21.70;70.60
72936;DHT22;61085;48.804;9.228;2022-10-26T14:14:32;21.60;71.10
72936;DHT22;61085;48.804;9.228;2022-10-26T14:16:58;21.50;71.50
72936;DHT22;61085;48.804;9.228;2022-10-26T14:19:51;21.50;71.40
72936;DHT22;61085;48.804;9.228;2022-10-26T14:22:22;21.50;70.90
72936;DHT22;61085;48.804;9.228;2022-10-26T14:24:57;21.50;71.30
72936;DHT22;61085;48.804;9.228;2022-10-26T14:27:37;21.50;71.60
72936;DHT22;61085;48.804;9.228;2022-10-26T14:32:44;21.50;70.70
72936;DHT22;61085;48.804;9.228;2022-10-26T14:35:14;21.40;70.90
72936;DHT22;61085;48.804;9.228;2022-10-26T14:37:52;21.40;71.30
72936;DHT22;61085;48.804;9.228;2022-10-26T14:40:20;21.50;71.40
72936;DHT22;61085;48.804;9.228;2022-10-26T14:42:57;21.50;71.20
72936;DHT22;61085;48.804;9.228;2022-10-26T14:45:34;21.60;71.40
72936;DHT22;61085;48.804;9.228;2022-10-26T14:48:02;21.50;71.80
72936;DHT22;61085;48.804;9.228;2022-10-26T14:50:29;21.60;71.50
72936;DHT22;61085;48.804;9.228;2022-10-26T14:53:12;21.60;71.20
72936;DHT22;61085;48.804;9.228;2022-10-26T14:55:47;21.50;71.00
72936;DHT22;61085;48.804;9.228;2022-10-26T14:58:29;21.50;71.10
72936;DHT22;61085;48.804;9.228;2022-10-26T15:01:16;21.40;71.60
72936;DHT22;61085;48.804;9.228;2022-10-26T15:03:55;21.50;71.00
72936;DHT22;61085;48.804;9.228;2022-10-26T15:08:59;21.30;71.20
72936;DHT22;61085;48.804;9.228;2022-10-26T15:11:26;21.30;71.90
72936;DHT22;61085;48.804;9.228;2022-10-26T15:13:52;21.20;72.70
72936;DHT22;61085;48.804;9.228;2022-10-26T15:16:21;21.20;72.60
72936;DHT22;61085;48.804;9.228;2022-10-26T15:18:54;21.10;72.80
72936;DHT22;61085;48.804;9.228;2022-10-26T15:21:34;21.40;73.80
72936;DHT22;61085;48.804;9.228;2022-10-26T15:24:01;21.10;73.80
72936;DHT22;61085;48.804;9.228;2022-10-26T15:26:27;21.00;73.80
72936;DHT22;61085;48.804;9.228;2022-10-26T15:28:53;21.00;74.10
72936;DHT22;61085;48.804;9.228;2022-10-26T15:36:22;20.90;74.70
72936;DHT22;61085;48.804;9.228;2022-10-26T15:38:48;20.80;74.80
72936;DHT22;61085;48.804;9.228;2022-10-26T15:41:27;20.70;75.40
72936;DHT22;61085;48.804;9.228;2022-10-26T15:43:56;20.70;74.00
72936;DHT22;61085;48.804;9.228;2022-10-26T15:46:32;20.60;74.80
72936;DHT22;61085;48.804;9.228;2022-10-26T15:49:00;20.60;75.10
72936;DHT22;61085;48.804;9.228;2022-10-26T15:51:27;20.50;75.30
72936;DHT22;61085;48.804;9.228;2022-10-26T15:53:56;20.50;75.50
72936;DHT22;61085;48.804;9.228;2022-10-26T15:56:23;20.40;76.10
72936;DHT22;61085;48.804;9.228;2022-10-26T15:58:49;20.40;76.10
72936;DHT22;61085;48.804;9.228;2022-10-26T16:01:23;20.30;76.50
72936;DHT22;61085;48.804;9.228;2022-10-26T16:03:49;20.30;77.70
72936;DHT22;61085;48.804;9.228;2022-10-26T16:08:51;20.30;77.70
72936;DHT22;61085;48.804;9.228;2022-10-26T16:11:17;20.20;78.50
72936;DHT22;61085;48.804;9.228;2022-10-26T16:13:43;20.00;79.30
72936;DHT22;61085;48.804;9.228;2022-10-26T16:16:12;20.00;79.50
72936;DHT22;61085;48.804;9.228;2022-10-26T16:18:38;20.10;80.50
72936;DHT22;61085;48.804;9.228;2022-10-26T16:21:04;19.80;80.70
72936;DHT22;61085;48.804;9.228;2022-10-26T16:23:29;19.70;81.50
72936;DHT22;61085;48.804;9.228;2022-10-26T16:25:55;19.60;82.20
72936;DHT22;61085;48.804;9.228;2022-10-26T16:28:21;19.50;82.80
72936;DHT22;61085;48.804;9.228;2022-10-26T16:30:46;19.40;84.10
72936;DHT22;61085;48.804;9.228;2022-10-26T16:33:12;19.30;85.10
72936;DHT22;61085;48.804;9.228;2022-10-26T16:35:38;19.20;86.00
72936;DHT22;61085;48.804;9.228;2022-10-26T16:38:03;19.10;87.00
72936;DHT22;61085;48.804;9.228;2022-10-26T16:40:29;19.00;87.60
72936;DHT22;61085;48.804;9.228;2022-10-26T16:42:54;19.00;87.30
72936;DHT22;61085;48.804;9.228;2022-10-26T16:45:20;18.90;89.10
72936;DHT22;61085;48.804;9.228;2022-10-26T16:47:46;18.90;89.30
72936;DHT22;61085;48.804;9.228;2022-10-26T16:50:12;18.80;89.10
72936;DHT22;61085;48.804;9.228;2022-10-26T16:52:39;18.80;90.00
72936;DHT22;61085;48.804;9.228;2022-10-26T16:55:06;18.70;90.30
72936;DHT22;61085;48.804;9.228;2022-10-26T16:57:34;18.60;90.50
72936;DHT22;61085;48.804;9.228;2022-10-26T16:59:59;18.50;90.80
72936;DHT22;61085;48.804;9.228;2022-10-26T17:02:25;18.50;91.30
72936;DHT22;61085;48.804;9.228;2022-10-26T17:04:50;18.40;91.50
72936;DHT22;61085;48.804;9.228;2022-10-26T17:07:16;18.30;91.80
72936;DHT22;61085;48.804;9.228;2022-10-26T17:09:42;18.20;92.00
72936;DHT22;61085;48.804;9.228;2022-10-26T17:12:07;18.20;92.00
72936;DHT22;61085;48.804;9.228;2022-10-26T17:14:35;18.10;92.10
72936;DHT22;61085;48.804;9.228;2022-10-26T17:17:01;18.00;92.50
72936;DHT22;61085;48.804;9.228;2022-10-26T17:19:27;18.00;92.70
72936;DHT22;61085;48.804;9.228;2022-10-26T17:21:53;18.00;93.10
72936;DHT22;61085;48.804;9.228;2022-10-26T17:24:18;18.00;93.10
72936;DHT22;61085;48.804;9.228;2022-10-26T17:26:44;17.90;93.50
72936;DHT22;61085;48.804;9.228;2022-10-26T17:29:12;17.80;93.60
72936;DHT22;61085;48.804;9.228;2022-10-26T17:31:38;17.80;93.70
72936;DHT22;61085;48.804;9.228;2022-10-26T17:34:04;17.90;94.40
72936;DHT22;61085;48.804;9.228;2022-10-26T17:36:29;17.80;94.10
72936;DHT22;61085;48.804;9.228;2022-10-26T17:38:56;17.70;94.30
72936;DHT22;61085;48.804;9.228;2022-10-26T17:41:22;17.60;94.60
72936;DHT22;61085;48.804;9.228;2022-10-26T17:43:48;17.60;94.70
72936;DHT22;61085;48.804;9.228;2022-10-26T17:46:16;17.50;95.00
72936;DHT22;61085;48.804;9.228;2022-10-26T17:48:42;17.50;94.90
72936;DHT22;61085;48.804;9.228;2022-10-26T17:51:16;17.40;95.30
72936;DHT22;61085;48.804;9.228;2022-10-26T17:53:45;17.40;95.70
72936;DHT22;61085;48.804;9.228;2022-10-26T17:56:14;17.30;96.10
72936;DHT22;61085;48.804;9.228;2022-10-26T17:58:40;17.30;96.10
72936;DHT22;61085;48.804;9.228;2022-10-26T18:01:08;17.20;96.20
72936;DHT22;61085;48.804;9.228;2022-10-26T18:03:34;17.30;95.90
72936;DHT22;61085;48.804;9.228;2022-10-26T18:06:00;17.20;96.00
72936;DHT22;61085;48.804;9.228;2022-10-26T18:08:28;17.10;95.90
72936;DHT22;61085;48.804;9.228;2022-10-26T18:10:54;17.10;96.20
72936;DHT22;61085;48.804;9.228;2022-10-26T18:13:20;17.00;96.30
72936;DHT22;61085;48.804;9.228;2022-10-26T18:15:46;17.00;96.40
72936;DHT22;61085;48.804;9.228;2022-10-26T18:18:12;16.90;96.60
72936;DHT22;61085;48.804;9.228;2022-10-26T18:20:38;16.90;96.70
72936;DHT22;61085;48.804;9.228;2022-10-26T18:23:04;16.90;96.70